createdAt,value
2016-02-27T00:00:14.777Z,0
2016-02-27T00:01:14.812Z,0
2016-02-27T00:02:14.813Z,0
2016-02-27T00:03:14.816Z,0
2016-02-27T00:04:14.836Z,0
2016-02-27T00:05:14.869Z,0
2016-02-27T00:06:14.871Z,0
2016-02-27T00:07:14.905Z,0
2016-02-27T00:08:14.893Z,0
2016-02-27T00:09:14.896Z,0
2016-02-27T00:10:14.976Z,0
2016-02-27T00:11:14.932Z,0
2016-02-27T00:12:15.012Z,0
2016-02-27T00:13:14.968Z,0
2016-02-27T00:14:15.003Z,0
2016-02-27T00:15:15.068Z,0
2016-02-27T00:16:15.023Z,0
2016-02-27T00:17:15.026Z,0
2016-02-27T00:18:15.045Z,0
2016-02-27T00:19:15.063Z,0
2016-02-27T00:20:15.097Z,0
2016-02-27T00:21:14.928Z,0
2016-02-27T00:22:15.134Z,0
2016-02-27T00:23:15.105Z,0
2016-02-27T00:24:15.170Z,0
2016-02-27T00:25:15.141Z,0
2016-02-27T00:26:15.175Z,0
2016-02-27T00:27:15.178Z,0
2016-02-27T00:28:15.211Z,0
2016-02-27T00:29:15.214Z,0
2016-02-27T00:30:15.217Z,0
2016-02-27T00:31:15.235Z,0
2016-02-27T00:32:15.255Z,0
2016-02-27T00:33:15.257Z,0
2016-02-27T00:34:15.291Z,0
2016-02-27T00:35:15.310Z,0
2016-02-27T00:36:15.328Z,0
2016-02-27T00:37:15.315Z,0
2016-02-27T00:38:15.349Z,0
2016-02-27T00:39:15.351Z,0
2016-02-27T00:40:15.385Z,0
2016-02-27T00:41:15.404Z,0
2016-02-27T00:42:15.390Z,0
2016-02-27T00:43:15.424Z,0
2016-02-27T00:44:15.427Z,0
2016-02-27T00:45:15.461Z,0
2016-02-27T00:46:15.449Z,0
2016-02-27T00:47:15.467Z,0
2016-02-27T00:48:15.500Z,0
2016-02-27T00:49:15.488Z,0
2016-02-27T00:50:15.537Z,0
2016-02-27T00:51:15.508Z,0
2016-02-27T00:52:15.558Z,0
2016-02-27T00:53:15.561Z,0
2016-02-27T00:54:15.595Z,0
2016-02-27T00:55:15.566Z,0
2016-02-27T00:56:15.631Z,0
2016-02-27T00:57:15.603Z,0
2016-02-27T00:58:15.636Z,0
2016-02-27T00:59:15.655Z,0
2016-02-27T01:00:15.642Z,0
2016-02-27T01:01:15.691Z,0
2016-02-27T01:02:15.710Z,0
2016-02-27T01:03:15.697Z,0
2016-02-27T01:04:15.716Z,0
2016-02-27T01:05:15.718Z,0
2016-02-27T01:06:15.752Z,0
2016-02-27T01:07:15.755Z,0
2016-02-27T01:08:15.805Z,0
2016-02-27T01:09:15.791Z,0
2016-02-27T01:10:15.825Z,0
2016-02-27T01:11:15.844Z,0
2016-02-27T01:12:15.830Z,0
2016-02-27T01:13:15.849Z,0
2016-02-27T01:14:15.867Z,0
2016-02-27T01:15:15.885Z,0
2016-02-27T01:16:15.888Z,0
2016-02-27T01:17:15.907Z,0
2016-02-27T01:18:15.909Z,0
2016-02-27T01:19:15.942Z,0
2016-02-27T01:20:15.977Z,0
2016-02-27T01:21:15.965Z,0
2016-02-27T01:22:15.967Z,0
2016-02-27T01:23:15.829Z,0
2016-02-27T01:24:16.035Z,0
2016-02-27T01:25:16.006Z,0
2016-02-27T01:26:16.025Z,0
2016-02-27T01:27:16.042Z,0
2016-02-27T01:28:16.061Z,0
2016-02-27T01:29:16.094Z,0
2016-02-27T01:30:16.144Z,0
2016-02-27T01:31:16.117Z,0
2016-02-27T01:32:16.103Z,0
2016-02-27T01:33:16.105Z,0
2016-02-27T01:34:16.140Z,0
2016-02-27T01:35:16.158Z,0
2016-02-27T01:36:16.177Z,0
2016-02-27T01:37:16.179Z,0
2016-02-27T01:38:16.213Z,0
2016-02-27T01:39:16.232Z,0
2016-02-27T01:40:16.249Z,0
2016-02-27T01:41:16.237Z,0
2016-02-27T01:42:16.255Z,0
2016-02-27T01:43:16.273Z,0
2016-02-27T01:44:16.291Z,0
2016-02-27T01:45:16.294Z,0
2016-02-27T01:46:16.313Z,0
2016-02-27T01:47:16.346Z,0
2016-02-27T01:48:16.349Z,0
2016-02-27T01:49:16.352Z,0
2016-02-27T01:50:16.386Z,0
2016-02-27T01:51:16.404Z,0
2016-02-27T01:52:16.406Z,0
2016-02-27T01:53:16.425Z,0
2016-02-27T01:54:16.443Z,0
2016-02-27T01:55:16.445Z,0
2016-02-27T01:56:16.465Z,0
2016-02-27T01:57:16.498Z,0
2016-02-27T01:58:16.501Z,0
2016-02-27T01:59:16.520Z,0
2016-02-27T02:00:16.522Z,0
2016-02-27T02:01:16.525Z,0
2016-02-27T02:02:16.574Z,0
2016-02-27T02:03:16.608Z,0
2016-02-27T02:04:16.564Z,0
2016-02-27T02:05:16.583Z,0
2016-02-27T02:06:16.601Z,0
2016-02-27T02:07:16.619Z,0
2016-02-27T02:08:16.638Z,0
2016-02-27T02:09:16.640Z,0
2016-02-27T02:10:16.658Z,0
2016-02-27T02:11:16.677Z,0
2016-02-27T02:12:16.695Z,0
2016-02-27T02:13:16.698Z,0
2016-02-27T02:14:16.715Z,0
2016-02-27T02:15:16.735Z,0
2016-02-27T02:16:16.644Z,0
2016-02-27T02:17:16.880Z,0
2016-02-27T02:18:16.868Z,0
2016-02-27T02:19:16.792Z,0
2016-02-27T02:20:16.842Z,0
2016-02-27T02:21:16.828Z,0
2016-02-27T02:22:16.831Z,0
2016-02-27T02:23:16.851Z,0
2016-02-27T02:24:16.868Z,0
2016-02-27T02:25:16.871Z,0
2016-02-27T02:26:16.889Z,0
2016-02-27T02:27:16.892Z,0
2016-02-27T02:28:16.910Z,0
2016-02-27T02:29:16.928Z,0
2016-02-27T02:30:16.947Z,0
2016-02-27T02:31:16.965Z,0
2016-02-27T02:32:16.999Z,0
2016-02-27T02:33:16.970Z,0
2016-02-27T02:34:16.989Z,0
2016-02-27T02:35:17.008Z,0
2016-02-27T02:36:17.041Z,0
2016-02-27T02:37:17.075Z,0
2016-02-27T02:38:17.061Z,0
2016-02-27T02:39:17.064Z,0
2016-02-27T02:40:17.082Z,0
2016-02-27T02:41:17.085Z,0
2016-02-27T02:42:17.136Z,0
2016-02-27T02:43:16.966Z,0
2016-02-27T02:44:17.125Z,0
2016-02-27T02:45:17.143Z,0
2016-02-27T02:46:17.177Z,0
2016-02-27T02:47:17.242Z,0
2016-02-27T02:48:17.182Z,0
2016-02-27T02:49:17.201Z,0
2016-02-27T02:50:17.219Z,0
2016-02-27T02:51:17.222Z,0
2016-02-27T02:52:17.256Z,0
2016-02-27T02:53:17.118Z,0
2016-02-27T02:54:17.277Z,0
2016-02-27T02:55:17.295Z,0
2016-02-27T02:56:17.314Z,0
2016-02-27T02:57:17.300Z,0
2016-02-27T02:58:17.319Z,0
2016-02-27T02:59:17.337Z,0
2016-02-27T03:00:17.355Z,0
2016-02-27T03:01:17.374Z,0
2016-02-27T03:02:17.283Z,0
2016-02-27T03:03:17.442Z,0
2016-02-27T03:04:17.569Z,0
2016-02-27T03:05:17.494Z,0
2016-02-27T03:06:17.450Z,0
2016-02-27T03:07:17.452Z,0
2016-02-27T03:08:16.721Z,0
2016-02-27T03:09:17.474Z,0
2016-02-27T03:10:17.477Z,0
2016-02-27T03:11:17.338Z,0
2016-02-27T03:12:17.513Z,0
2016-02-27T03:13:17.547Z,0
2016-02-27T03:14:17.549Z,0
2016-02-27T03:15:17.583Z,0
2016-02-27T03:16:17.585Z,0
2016-02-27T03:17:17.621Z,0
2016-02-27T03:18:17.607Z,0
2016-02-27T03:19:17.672Z,0
2016-02-27T03:20:17.643Z,0
2016-02-27T03:21:17.677Z,0
2016-02-27T03:22:17.696Z,0
2016-02-27T03:23:17.682Z,0
2016-02-27T03:24:17.810Z,0
2016-02-27T03:25:17.860Z,0
2016-02-27T03:26:17.707Z,0
2016-02-27T03:27:17.709Z,0
2016-02-27T03:28:17.743Z,0
2016-02-27T03:29:17.778Z,0
2016-02-27T03:30:17.764Z,0
2016-02-27T03:31:17.767Z,0
2016-02-27T03:32:17.520Z,0
2016-02-27T03:33:17.866Z,0
2016-02-27T03:34:17.822Z,0
2016-02-27T03:35:17.839Z,0
2016-02-27T03:36:17.843Z,0
2016-02-27T03:37:17.861Z,0
2016-02-27T03:38:17.958Z,0
2016-02-27T03:39:17.930Z,0
2016-02-27T03:40:17.916Z,0
2016-02-27T03:41:17.919Z,0
2016-02-27T03:42:17.937Z,0
2016-02-27T03:43:17.940Z,0
2016-02-27T03:44:17.974Z,0
2016-02-27T03:45:17.977Z,0
2016-02-27T03:46:17.824Z,0
2016-02-27T03:47:18.076Z,0
2016-02-27T03:48:18.000Z,0
2016-02-27T03:49:18.035Z,0
2016-02-27T03:50:18.052Z,0
2016-02-27T03:51:18.054Z,0
2016-02-27T03:52:18.090Z,0
2016-02-27T03:53:18.107Z,0
2016-02-27T03:54:18.095Z,0
2016-02-27T03:55:18.113Z,0
2016-02-27T03:56:18.178Z,0
2016-02-27T03:57:18.134Z,0
2016-02-27T03:58:18.167Z,0
2016-02-27T03:59:18.170Z,0
2016-02-27T04:00:18.220Z,0
2016-02-27T04:01:18.223Z,0
2016-02-27T04:02:18.117Z,0
2016-02-27T04:03:18.212Z,0
2016-02-27T04:04:18.231Z,0
2016-02-27T04:05:18.233Z,0
2016-02-27T04:06:18.252Z,0
2016-02-27T04:07:18.285Z,0
2016-02-27T04:08:18.289Z,0
2016-02-27T04:09:18.323Z,0
2016-02-27T04:10:18.341Z,0
2016-02-27T04:11:18.328Z,0
2016-02-27T04:12:18.331Z,0
2016-02-27T04:13:18.349Z,0
2016-02-27T04:14:18.414Z,0
2016-02-27T04:15:18.229Z,0
2016-02-27T04:16:18.388Z,0
2016-02-27T04:17:18.437Z,0
2016-02-27T04:18:18.424Z,0
2016-02-27T04:19:18.428Z,0
2016-02-27T04:20:18.446Z,0
2016-02-27T04:21:18.464Z,0
2016-02-27T04:22:18.466Z,0
2016-02-27T04:23:18.501Z,0
2016-02-27T04:24:18.503Z,0
2016-02-27T04:25:18.522Z,0
2016-02-27T04:26:18.524Z,0
2016-02-27T04:27:18.527Z,0
2016-02-27T04:28:18.562Z,0
2016-02-27T04:29:18.564Z,0
2016-02-27T04:30:18.570Z,0
2016-02-27T04:31:18.591Z,0
2016-02-27T04:32:18.518Z,0
2016-02-27T04:33:18.586Z,0
2016-02-27T04:34:18.606Z,0
2016-02-27T04:35:18.589Z,0
2016-02-27T04:36:18.601Z,0
2016-02-27T04:37:18.615Z,0
2016-02-27T04:38:18.613Z,0
2016-02-27T04:39:18.626Z,0
2016-02-27T04:40:18.627Z,0
2016-02-27T04:41:18.643Z,0
2016-02-27T04:42:18.644Z,0
2016-02-27T04:43:18.677Z,0
2016-02-27T04:44:18.678Z,0
2016-02-27T04:45:18.680Z,0
2016-02-27T04:46:18.713Z,0
2016-02-27T04:47:18.871Z,0
2016-02-27T04:48:18.732Z,0
2016-02-27T04:49:18.734Z,0
2016-02-27T04:50:18.752Z,0
2016-02-27T04:51:18.755Z,0
2016-02-27T04:52:18.788Z,0
2016-02-27T04:53:18.791Z,0
2016-02-27T04:54:18.653Z,0
2016-02-27T04:55:18.826Z,0
2016-02-27T04:56:18.829Z,0
2016-02-27T04:57:18.864Z,0
2016-02-27T04:58:18.850Z,0
2016-02-27T04:59:18.869Z,0
2016-02-27T05:00:18.886Z,0
2016-02-27T05:01:18.905Z,0
2016-02-27T05:02:18.940Z,0
2016-02-27T05:03:18.927Z,0
2016-02-27T05:04:18.930Z,0
2016-02-27T05:05:18.963Z,0
2016-02-27T05:06:18.966Z,0
2016-02-27T05:07:18.983Z,0
2016-02-27T05:08:19.002Z,0
2016-02-27T05:09:19.005Z,0
2016-02-27T05:10:19.071Z,0
2016-02-27T05:11:19.042Z,0
2016-02-27T05:12:19.060Z,0
2016-02-27T05:13:19.063Z,0
2016-02-27T05:14:19.081Z,0
2016-02-27T05:15:19.084Z,0
2016-02-27T05:16:19.118Z,0
2016-02-27T05:17:19.151Z,0
2016-02-27T05:18:19.124Z,0
2016-02-27T05:19:19.126Z,0
2016-02-27T05:20:19.144Z,0
2016-02-27T05:21:19.162Z,0
2016-02-27T05:22:19.181Z,0
2016-02-27T05:23:19.183Z,0
2016-02-27T05:24:19.201Z,0
2016-02-27T05:25:19.220Z,0
2016-02-27T05:26:19.239Z,0
2016-02-27T05:27:19.257Z,0
2016-02-27T05:28:19.259Z,0
2016-02-27T05:29:19.262Z,0
2016-02-27T05:30:19.125Z,0
2016-02-27T05:31:19.314Z,0
2016-02-27T05:32:19.317Z,0
2016-02-27T05:33:19.335Z,0
2016-02-27T05:34:19.339Z,0
2016-02-27T05:35:19.356Z,0
2016-02-27T05:36:19.375Z,0
2016-02-27T05:37:19.408Z,0
2016-02-27T05:38:19.396Z,0
2016-02-27T05:39:19.398Z,0
2016-02-27T05:40:19.416Z,0
2016-02-27T05:41:19.435Z,0
2016-02-27T05:42:19.469Z,0
2016-02-27T05:43:19.456Z,0
2016-02-27T05:44:19.474Z,0
2016-02-27T05:45:19.477Z,0
2016-02-27T05:46:19.495Z,0
2016-02-27T05:47:19.513Z,0
2016-02-27T05:48:19.532Z,0
2016-02-27T05:49:19.581Z,0
2016-02-27T05:50:19.554Z,0
2016-02-27T05:51:18.821Z,0
2016-02-27T05:52:19.574Z,0
2016-02-27T05:53:19.639Z,0
2016-02-27T05:54:19.626Z,0
2016-02-27T05:55:19.629Z,0
2016-02-27T05:56:19.647Z,0
2016-02-27T05:57:19.650Z,0
2016-02-27T05:58:19.684Z,0
2016-02-27T05:59:19.671Z,0
2016-02-27T06:00:19.751Z,0
2016-02-27T06:01:19.692Z,0
2016-02-27T06:02:19.711Z,0
2016-02-27T06:03:19.759Z,0
2016-02-27T06:04:19.747Z,0
2016-02-27T06:05:19.750Z,0
2016-02-27T06:06:19.767Z,0
2016-02-27T06:07:19.770Z,0
2016-02-27T06:08:19.788Z,0
2016-02-27T06:09:19.651Z,0
2016-02-27T06:10:19.810Z,0
2016-02-27T06:11:19.828Z,0
2016-02-27T06:12:19.862Z,0
2016-02-27T06:13:19.880Z,0
2016-02-27T06:14:19.914Z,0
2016-02-27T06:15:19.901Z,0
2016-02-27T06:16:19.904Z,0
2016-02-27T06:17:19.907Z,0
2016-02-27T06:18:19.972Z,0
2016-02-27T06:19:19.959Z,0
2016-02-27T06:20:20.009Z,0
2016-02-27T06:21:19.980Z,0
2016-02-27T06:22:19.982Z,0
2016-02-27T06:23:19.985Z,0
2016-02-27T06:24:20.003Z,0
2016-02-27T06:25:20.023Z,0
2016-02-27T06:26:20.025Z,0
2016-02-27T06:27:20.059Z,0
2016-02-27T06:28:19.921Z,0
2016-02-27T06:29:20.064Z,0
2016-02-27T06:30:20.098Z,0
2016-02-27T06:31:20.084Z,0
2016-02-27T06:32:20.103Z,0
2016-02-27T06:33:20.122Z,0
2016-02-27T06:34:20.140Z,0
2016-02-27T06:35:20.158Z,0
2016-02-27T06:36:20.177Z,0
2016-02-27T06:37:20.180Z,0
2016-02-27T06:38:20.197Z,0
2016-02-27T06:39:20.200Z,0
2016-02-27T06:40:20.218Z,0
2016-02-27T06:41:20.237Z,0
2016-02-27T06:42:20.239Z,0
2016-02-27T06:43:20.273Z,0
2016-02-27T06:44:20.276Z,0
2016-02-27T06:45:20.310Z,0
2016-02-27T06:46:20.297Z,0
2016-02-27T06:47:20.331Z,0
2016-02-27T06:48:20.318Z,0
2016-02-27T06:49:20.352Z,0
2016-02-27T06:50:20.355Z,0
2016-02-27T06:51:20.374Z,0
2016-02-27T06:52:20.391Z,0
2016-02-27T06:53:20.394Z,0
2016-02-27T06:54:20.397Z,0
2016-02-27T06:55:20.415Z,0
2016-02-27T06:56:20.433Z,0
2016-02-27T06:57:20.436Z,0
2016-02-27T06:58:20.454Z,0
2016-02-27T06:59:20.597Z,0
2016-02-27T07:00:20.492Z,0
2016-02-27T07:01:20.540Z,0
2016-02-27T07:02:20.512Z,0
2016-02-27T07:03:20.500Z,0
2016-02-27T07:04:20.533Z,0
2016-02-27T07:05:20.551Z,0
2016-02-27T07:06:20.553Z,0
2016-02-27T07:07:20.588Z,0
2016-02-27T07:08:20.592Z,0
2016-02-27T07:09:20.609Z,0
2016-02-27T07:10:20.612Z,5
2016-02-27T07:11:20.646Z,5
2016-02-27T07:12:20.664Z,5
2016-02-27T07:13:20.666Z,5
2016-02-27T07:14:20.669Z,5
2016-02-27T07:15:20.672Z,5
2016-02-27T07:16:20.691Z,5
2016-02-27T07:17:20.709Z,5
2016-02-27T07:18:20.711Z,5
2016-02-27T07:19:20.730Z,5
2016-02-27T07:20:20.748Z,5
2016-02-27T07:21:20.782Z,5
2016-02-27T07:22:20.784Z,5
2016-02-27T07:23:20.818Z,5
2016-02-27T07:24:20.807Z,5
2016-02-27T07:25:20.824Z,5
2016-02-27T07:26:20.843Z,5
2016-02-27T07:27:20.845Z,5
2016-02-27T07:28:20.863Z,5
2016-02-27T07:29:20.865Z,5
2016-02-27T07:30:20.900Z,5
2016-02-27T07:31:20.903Z,5
2016-02-27T07:32:20.921Z,5
2016-02-27T07:33:20.956Z,5
2016-02-27T07:34:20.926Z,5
2016-02-27T07:35:20.945Z,5
2016-02-27T07:36:20.963Z,5
2016-02-27T07:37:20.981Z,5
2016-02-27T07:38:21.014Z,5
2016-02-27T07:39:21.017Z,5
2016-02-27T07:40:21.037Z,5
2016-02-27T07:41:21.023Z,5
2016-02-27T07:42:21.042Z,5
2016-02-27T07:43:21.060Z,5
2016-02-27T07:44:21.078Z,5
2016-02-27T07:45:21.080Z,5
2016-02-27T07:46:21.099Z,5
2016-02-27T07:47:21.118Z,5
2016-02-27T07:48:21.121Z,5
2016-02-27T07:49:21.139Z,5
2016-02-27T07:50:21.001Z,5
2016-02-27T07:51:21.175Z,5
2016-02-27T07:52:21.272Z,5
2016-02-27T07:53:21.212Z,5
2016-02-27T07:54:21.215Z,5
2016-02-27T07:55:21.232Z,5
2016-02-27T07:56:21.251Z,5
2016-02-27T07:57:21.285Z,5
2016-02-27T07:58:21.256Z,5
2016-02-27T07:59:21.290Z,5
2016-02-27T08:00:21.309Z,5
2016-02-27T08:01:21.327Z,5
2016-02-27T08:02:21.189Z,5
2016-02-27T08:03:21.348Z,5
2016-02-27T08:04:21.351Z,5
2016-02-27T08:05:21.370Z,5
2016-02-27T08:06:21.372Z,5
2016-02-27T08:07:21.390Z,5
2016-02-27T08:08:21.393Z,5
2016-02-27T08:09:21.411Z,5
2016-02-27T08:10:21.430Z,5
2016-02-27T08:11:21.432Z,5
2016-02-27T08:12:21.450Z,5
2016-02-27T08:13:21.484Z,5
2016-02-27T08:14:21.486Z,5
2016-02-27T08:15:21.536Z,5
2016-02-27T08:16:21.539Z,5
2016-02-27T08:17:21.527Z,5
2016-02-27T08:18:21.544Z,5
2016-02-27T08:19:21.547Z,5
2016-02-27T08:20:21.566Z,5
2016-02-27T08:21:21.600Z,5
2016-02-27T08:22:21.603Z,5
2016-02-27T08:23:21.621Z,5
2016-02-27T08:24:21.638Z,5
2016-02-27T08:25:21.658Z,5
2016-02-27T08:26:21.676Z,5
2016-02-27T08:27:21.647Z,5
2016-02-27T08:28:21.681Z,5
2016-02-27T08:29:21.699Z,5
2016-02-27T08:30:21.717Z,5
2016-02-27T08:31:21.737Z,5
2016-02-27T08:32:21.754Z,5
2016-02-27T08:33:21.773Z,5
2016-02-27T08:34:21.775Z,5
2016-02-27T08:35:21.778Z,10
2016-02-27T08:36:21.781Z,10
2016-02-27T08:37:21.799Z,10
2016-02-27T08:38:21.802Z,10
2016-02-27T08:39:21.820Z,10
2016-02-27T08:40:21.839Z,10
2016-02-27T08:41:21.857Z,10
2016-02-27T08:42:21.891Z,10
2016-02-27T08:43:21.909Z,10
2016-02-27T08:44:21.928Z,10
2016-02-27T08:45:21.930Z,10
2016-02-27T08:46:21.917Z,10
2016-02-27T08:47:21.950Z,10
2016-02-27T08:48:21.828Z,10
2016-02-27T08:49:21.955Z,10
2016-02-27T08:50:21.991Z,10
2016-02-27T08:51:21.993Z,10
2016-02-27T08:52:22.011Z,10
2016-02-27T08:53:22.030Z,10
2016-02-27T08:54:22.063Z,10
2016-02-27T08:55:22.066Z,10
2016-02-27T08:56:22.069Z,10
2016-02-27T08:57:22.102Z,10
2016-02-27T08:58:22.152Z,10
2016-02-27T08:59:22.139Z,10
2016-02-27T09:00:22.126Z,10
2016-02-27T09:01:22.145Z,10
2016-02-27T09:02:22.148Z,10
2016-02-27T09:03:22.104Z,10
2016-02-27T09:04:22.184Z,10
2016-02-27T09:05:22.187Z,15
2016-02-27T09:06:22.220Z,15
2016-02-27T09:07:22.223Z,15
2016-02-27T09:08:22.242Z,15
2016-02-27T09:09:22.150Z,15
2016-02-27T09:10:22.262Z,15
2016-02-27T09:11:22.281Z,15
2016-02-27T09:12:22.300Z,15
2016-02-27T09:13:22.303Z,15
2016-02-27T09:14:22.336Z,15
2016-02-27T09:15:22.339Z,15
2016-02-27T09:16:22.373Z,15
2016-02-27T09:17:22.375Z,15
2016-02-27T09:18:22.488Z,15
2016-02-27T09:19:22.411Z,15
2016-02-27T09:20:22.414Z,15
2016-02-27T09:21:22.449Z,15
2016-02-27T09:22:22.591Z,15
2016-02-27T09:23:22.454Z,15
2016-02-27T09:24:22.472Z,15
2016-02-27T09:25:22.599Z,15
2016-02-27T09:26:22.478Z,15
2016-02-27T09:27:22.543Z,15
2016-02-27T09:28:22.545Z,15
2016-02-27T09:29:22.580Z,15
2016-02-27T09:30:22.551Z,15
2016-02-27T09:31:22.585Z,15
2016-02-27T09:32:22.571Z,15
2016-02-27T09:33:22.590Z,15
2016-02-27T09:34:22.592Z,15
2016-02-27T09:35:22.642Z,15
2016-02-27T09:36:22.645Z,15
2016-02-27T09:37:22.710Z,15
2016-02-27T09:38:22.698Z,20
2016-02-27T09:39:22.684Z,20
2016-02-27T09:40:22.718Z,20
2016-02-27T09:41:22.753Z,20
2016-02-27T09:42:22.723Z,20
2016-02-27T09:43:22.742Z,20
2016-02-27T09:44:22.761Z,20
2016-02-27T09:45:22.982Z,20
2016-02-27T09:46:22.813Z,20
2016-02-27T09:47:22.878Z,20
2016-02-27T09:48:22.849Z,20
2016-02-27T09:49:22.852Z,20
2016-02-27T09:50:22.902Z,20
2016-02-27T09:51:22.888Z,20
2016-02-27T09:52:22.891Z,20
2016-02-27T09:53:22.940Z,20
2016-02-27T09:54:22.928Z,20
2016-02-27T09:55:22.994Z,20
2016-02-27T09:56:22.980Z,20
2016-02-27T09:57:22.968Z,20
2016-02-27T09:58:22.955Z,20
2016-02-27T09:59:23.035Z,20
2016-02-27T10:00:23.007Z,20
2016-02-27T10:01:23.024Z,20
2016-02-27T10:02:23.043Z,20
2016-02-27T10:03:23.140Z,20
2016-02-27T10:04:23.064Z,20
2016-02-27T10:05:22.958Z,20
2016-02-27T10:06:23.085Z,15
2016-02-27T10:07:23.119Z,15
2016-02-27T10:08:23.138Z,15
2016-02-27T10:09:23.218Z,15
2016-02-27T10:10:23.174Z,15
2016-02-27T10:11:23.161Z,15
2016-02-27T10:12:23.179Z,15
2016-02-27T10:13:23.198Z,15
2016-02-27T10:14:23.231Z,15
2016-02-27T10:15:23.250Z,15
2016-02-27T10:16:23.253Z,15
2016-02-27T10:17:23.256Z,15
2016-02-27T10:18:23.305Z,15
2016-02-27T10:19:23.323Z,15
2016-02-27T10:20:23.358Z,15
2016-02-27T10:21:23.360Z,15
2016-02-27T10:22:23.347Z,15
2016-02-27T10:23:23.349Z,15
2016-02-27T10:24:23.383Z,15
2016-02-27T10:25:23.386Z,15
2016-02-27T10:26:23.264Z,15
2016-02-27T10:27:23.423Z,15
2016-02-27T10:28:23.285Z,15
2016-02-27T10:29:23.444Z,15
2016-02-27T10:30:23.509Z,15
2016-02-27T10:31:23.527Z,15
2016-02-27T10:32:23.499Z,15
2016-02-27T10:33:23.595Z,15
2016-02-27T10:34:23.535Z,15
2016-02-27T10:35:23.585Z,15
2016-02-27T10:36:23.603Z,15
2016-02-27T10:37:23.793Z,15
2016-02-27T10:38:23.499Z,20
2016-02-27T10:39:23.658Z,20
2016-02-27T10:40:23.645Z,20
2016-02-27T10:41:23.664Z,20
2016-02-27T10:42:23.651Z,20
2016-02-27T10:43:23.700Z,20
2016-02-27T10:44:23.719Z,20
2016-02-27T10:45:23.753Z,20
2016-02-27T10:46:23.802Z,20
2016-02-27T10:47:23.742Z,20
2016-02-27T10:48:23.823Z,20
2016-02-27T10:49:23.811Z,20
2016-02-27T10:50:23.813Z,20
2016-02-27T10:51:23.113Z,20
2016-02-27T10:52:24.052Z,20
2016-02-27T10:53:23.868Z,20
2016-02-27T10:54:23.871Z,20
2016-02-27T10:55:23.983Z,20
2016-02-27T10:56:23.798Z,25
2016-02-27T10:57:23.910Z,25
2016-02-27T10:58:23.975Z,25
2016-02-27T10:59:23.963Z,25
2016-02-27T11:00:24.199Z,25
2016-02-27T11:01:23.983Z,20
2016-02-27T11:02:24.048Z,20
2016-02-27T11:03:24.051Z,20
2016-02-27T11:04:24.257Z,20
2016-02-27T11:05:24.087Z,20
2016-02-27T11:06:24.090Z,20
2016-02-27T11:07:24.312Z,20
2016-02-27T11:08:24.127Z,20
2016-02-27T11:09:24.145Z,25
2016-02-27T11:10:24.132Z,25
2016-02-27T11:11:24.291Z,25
2016-02-27T11:12:24.153Z,25
2016-02-27T11:13:24.218Z,25
2016-02-27T11:14:24.034Z,25
2016-02-27T11:15:24.270Z,25
2016-02-27T11:16:24.242Z,25
2016-02-27T11:17:24.323Z,20
2016-02-27T11:18:24.466Z,20
2016-02-27T11:19:24.281Z,20
2016-02-27T11:20:24.503Z,20
2016-02-27T11:21:24.350Z,20
2016-02-27T11:22:24.322Z,20
2016-02-27T11:23:24.589Z,15
2016-02-27T11:24:24.373Z,15
2016-02-27T11:25:24.423Z,20
2016-02-27T11:26:24.425Z,20
2016-02-27T11:27:24.413Z,20
2016-02-27T11:28:24.587Z,20
2016-02-27T11:29:24.450Z,20
2016-02-27T11:30:24.514Z,25
2016-02-27T11:31:24.502Z,25
2016-02-27T11:32:24.567Z,30
2016-02-27T11:33:24.600Z,30
2016-02-27T11:34:24.571Z,30
2016-02-27T11:35:24.590Z,30
2016-02-27T11:36:24.577Z,35
2016-02-27T11:37:24.580Z,35
2016-02-27T11:38:24.630Z,35
2016-02-27T11:39:24.632Z,30
2016-02-27T11:40:24.666Z,30
2016-02-27T11:41:24.887Z,30
2016-02-27T11:42:24.890Z,30
2016-02-27T11:43:24.706Z,30
2016-02-27T11:44:24.708Z,30
2016-02-27T11:45:24.805Z,30
2016-02-27T11:46:24.995Z,30
2016-02-27T11:47:24.795Z,30
2016-02-27T11:48:24.875Z,30
2016-02-27T11:49:24.909Z,30
2016-02-27T11:50:24.833Z,25
2016-02-27T11:51:24.852Z,25
2016-02-27T11:52:24.839Z,25
2016-02-27T11:53:24.889Z,25
2016-02-27T11:54:24.908Z,20
2016-02-27T11:55:24.925Z,20
2016-02-27T11:56:24.913Z,20
2016-02-27T11:57:24.961Z,25
2016-02-27T11:58:24.980Z,25
2016-02-27T11:59:24.999Z,25
2016-02-27T12:00:25.016Z,25
2016-02-27T12:01:25.067Z,25
2016-02-27T12:02:25.054Z,25
2016-02-27T12:03:25.041Z,25
2016-02-27T12:04:25.121Z,25
2016-02-27T12:05:25.077Z,25
2016-02-27T12:06:25.143Z,25
2016-02-27T12:07:25.145Z,25
2016-02-27T12:08:25.366Z,25
2016-02-27T12:09:25.182Z,20
2016-02-27T12:10:25.185Z,20
2016-02-27T12:11:25.406Z,20
2016-02-27T12:12:25.456Z,20
2016-02-27T12:13:25.458Z,20
2016-02-27T12:14:25.273Z,20
2016-02-27T12:15:25.260Z,25
2016-02-27T12:16:25.309Z,25
2016-02-27T12:17:25.313Z,25
2016-02-27T12:18:25.581Z,25
2016-02-27T12:19:25.350Z,25
2016-02-27T12:20:25.398Z,25
2016-02-27T12:21:25.417Z,25
2016-02-27T12:22:25.389Z,25
2016-02-27T12:23:25.454Z,25
2016-02-27T12:24:25.441Z,25
2016-02-27T12:25:25.350Z,25
2016-02-27T12:26:25.556Z,25
2016-02-27T12:27:25.542Z,25
2016-02-27T12:28:25.514Z,25
2016-02-27T12:29:25.752Z,25
2016-02-27T12:30:25.566Z,25
2016-02-27T12:31:25.647Z,25
2016-02-27T12:32:25.681Z,25
2016-02-27T12:33:25.669Z,25
2016-02-27T12:34:25.686Z,30
2016-02-27T12:35:25.643Z,30
2016-02-27T12:36:25.708Z,30
2016-02-27T12:37:25.710Z,30
2016-02-27T12:38:25.697Z,30
2016-02-27T12:39:25.779Z,30
2016-02-27T12:40:25.734Z,30
2016-02-27T12:41:25.877Z,30
2016-02-27T12:42:25.099Z,30
2016-02-27T12:43:26.273Z,30
2016-02-27T12:44:26.026Z,30
2016-02-27T12:45:25.935Z,30
2016-02-27T12:46:26.093Z,30
2016-02-27T12:47:25.878Z,25
2016-02-27T12:48:26.037Z,25
2016-02-27T12:49:26.055Z,25
2016-02-27T12:50:25.901Z,25
2016-02-27T12:51:26.014Z,25
2016-02-27T12:52:26.001Z,25
2016-02-27T12:53:26.175Z,20
2016-02-27T12:54:26.069Z,20
2016-02-27T12:55:26.055Z,20
2016-02-27T12:56:26.386Z,20
2016-02-27T12:57:26.389Z,15
2016-02-27T12:58:26.095Z,15
2016-02-27T12:59:26.363Z,15
2016-02-27T13:00:26.210Z,15
2016-02-27T13:01:26.353Z,20
2016-02-27T13:02:26.418Z,20
2016-02-27T13:03:26.421Z,20
2016-02-27T13:04:26.391Z,20
2016-02-27T13:05:26.224Z,20
2016-02-27T13:06:26.632Z,25
2016-02-27T13:07:26.322Z,20
2016-02-27T13:08:26.357Z,20
2016-02-27T13:09:26.327Z,20
2016-02-27T13:10:26.440Z,25
2016-02-27T13:11:26.551Z,25
2016-02-27T13:12:26.413Z,25
2016-02-27T13:13:26.104Z,25
2016-02-27T13:14:26.466Z,20
2016-02-27T13:15:26.485Z,25
2016-02-27T13:16:26.534Z,25
2016-02-27T13:17:26.505Z,25
2016-02-27T13:18:26.492Z,30
2016-02-27T13:19:26.542Z,30
2016-02-27T13:20:26.529Z,25
2016-02-27T13:21:26.532Z,25
2016-02-27T13:22:26.612Z,25
2016-02-27T13:23:26.631Z,30
2016-02-27T13:24:26.556Z,35
2016-02-27T13:25:26.620Z,35
2016-02-27T13:26:26.670Z,25
2016-02-27T13:27:26.720Z,25
2016-02-27T13:28:26.723Z,25
2016-02-27T13:29:26.709Z,25
2016-02-27T13:30:26.978Z,25
2016-02-27T13:31:26.808Z,30
2016-02-27T13:32:26.733Z,35
2016-02-27T13:33:26.735Z,35
2016-02-27T13:34:27.019Z,35
2016-02-27T13:35:26.786Z,35
2016-02-27T13:36:26.822Z,30
2016-02-27T13:37:26.810Z,20
2016-02-27T13:38:27.049Z,20
2016-02-27T13:39:26.803Z,15
2016-02-27T13:40:26.888Z,15
2016-02-27T13:41:26.901Z,25
2016-02-27T13:42:26.821Z,25
2016-02-27T13:43:26.928Z,30
2016-02-27T13:44:26.909Z,30
2016-02-27T13:45:26.892Z,25
2016-02-27T13:46:26.955Z,30
2016-02-27T13:47:26.942Z,25
2016-02-27T13:48:26.942Z,20
2016-02-27T13:49:27.005Z,20
2016-02-27T13:50:26.991Z,20
2016-02-27T13:51:26.993Z,20
2016-02-27T13:52:26.869Z,20
2016-02-27T13:53:27.074Z,20
2016-02-27T13:54:27.544Z,20
2016-02-27T13:55:27.063Z,15
2016-02-27T13:56:27.112Z,15
2016-02-27T13:57:27.099Z,20
2016-02-27T13:58:27.227Z,20
2016-02-27T13:59:27.167Z,20
2016-02-27T14:00:27.185Z,20
2016-02-27T14:01:27.187Z,15
2016-02-27T14:02:27.301Z,15
2016-02-27T14:03:27.350Z,15
2016-02-27T14:04:27.587Z,20
2016-02-27T14:05:27.402Z,20
2016-02-27T14:06:27.389Z,20
2016-02-27T14:07:27.892Z,15
2016-02-27T14:08:27.394Z,15
2016-02-27T14:09:27.475Z,15
2016-02-27T14:10:27.368Z,15
2016-02-27T14:11:27.481Z,15
2016-02-27T14:12:27.530Z,15
2016-02-27T14:13:27.720Z,15
2016-02-27T14:14:27.629Z,20
2016-02-27T14:15:27.444Z,20
2016-02-27T14:16:27.447Z,20
2016-02-27T14:17:27.481Z,15
2016-02-27T14:18:27.983Z,15
2016-02-27T14:19:27.486Z,15
2016-02-27T14:20:27.598Z,10
2016-02-27T14:21:27.523Z,15
2016-02-27T14:22:27.557Z,15
2016-02-27T14:23:27.575Z,15
2016-02-27T14:24:27.640Z,15
2016-02-27T14:25:27.721Z,15
2016-02-27T14:26:27.645Z,15
2016-02-27T14:27:27.648Z,15
2016-02-27T14:28:28.136Z,15
2016-02-27T14:29:28.453Z,15
2016-02-27T14:30:27.763Z,10
2016-02-27T14:31:28.557Z,10
2016-02-27T14:32:27.762Z,10
2016-02-27T14:33:27.765Z,15